Flight Track Log - Related Links

Times and Time Zones

All times are in EDT time to prevent confusion due to time zone crossing. See the QLK61 flight status page for this flight to view local times or setup timezone preferences in your user account.

Time Position Orientation Groundspeed Altitude Reporting Facility
EDT Latitude Longitude Course Direction KTS MPH feet Rate Location/Type
Thu 06:21:05 AM -37.7239 144.8479 171° South 125 144 2,700  Level Aus ATC (RADAR)
Thu 06:21:50 AM -37.7499 144.8530 171° South 128 147 3,900 1,380 Climbing Aus ATC (RADAR)
Thu 06:22:45 AM -37.7872 144.8605 171° South 152 175 5,000 1,200 Climbing Aus ATC (RADAR)
Thu 06:23:20 AM -37.8135 144.8648 173° South 163 188 5,700 1,200 Climbing Aus ATC (RADAR)
Thu 06:24:15 AM -37.8576 144.8763 168° South 181 208 6,800 1,114 Climbing Aus ATC (RADAR)
Thu 06:24:30 AM -37.8694 144.8828 156° South 184 212 7,000 1,080 Climbing Aus ATC (RADAR)
Thu 06:25:05 AM -37.8976 144.8983 157° South 190 219 7,700 1,150 Climbing Aus ATC (RADAR)
Thu 06:26:30 AM -37.9684 144.9353 158° South 195 224 9,300 1,140 Climbing Aus ATC (RADAR)
Thu 06:26:45 AM -37.9812 144.9418 158° South 196 226 9,600 960 Climbing Aus ATC (RADAR)
Thu 06:27:20 AM -38.0117 144.9574 158° South 202 232 10,100 933 Climbing Aus ATC (RADAR)
Thu 06:28:15 AM -38.0612 144.9830 158° South 210 242 11,000 933 Climbing Aus ATC (RADAR)
Thu 06:28:50 AM -38.0926 144.9992 158° South 208 239 11,500 800 Climbing Aus ATC (RADAR)
Thu 06:29:45 AM -38.1420 145.0253 157° South 211 243 12,200 809 Climbing Aus ATC (RADAR)
Thu 06:30:19 AM -38.1745 145.0411 159° South 213 245 12,700 865 Climbing Aus ATC (RADAR)
Thu 06:31:29 AM -38.2376 145.0738 158° South 211 243 13,700 887 Climbing Aus ATC (RADAR)
Thu 06:32:14 AM -38.2777 145.0952 157° South 208 239 14,400 900 Climbing Aus ATC (RADAR)
Thu 06:33:09 AM -38.3280 145.1211 158° South 213 245 15,200 867 Climbing Aus ATC (RADAR)
Thu 06:33:44 AM -38.3599 145.1377 158° South 212 244 15,700 867 Climbing Aus ATC (RADAR)
Thu 06:34:39 AM -38.4097 145.1625 159° South 207 238 16,500 857 Climbing Aus ATC (RADAR)
Thu 06:34:54 AM -38.4231 145.1696 158° South 208 239 16,700 720 Climbing Aus ATC (RADAR)
Thu 06:35:29 AM -38.4543 145.1858 158° South 208 239 17,100 695 Climbing Aus ATC (RADAR)
Thu 06:36:29 AM -38.5067 145.2137 157° South 207 238 17,800 720 Climbing Aus ATC (RADAR)
Thu 06:36:44 AM -38.5200 145.2202 159° South 205 236 18,000 840 Climbing Aus ATC (RADAR)
Thu 06:37:19 AM -38.5511 145.2341 161° South 204 235 18,500 706 Climbing Aus ATC (RADAR)
Thu 06:38:09 AM -38.5962 145.2522 163° South 204 235 19,000 286 Climbing Aus ATC (RADAR)
Thu 06:38:43 AM -38.6293 145.2659 162° South 214 246 18,900 -67 Descending Aus ATC (RADAR)
Thu 06:39:38 AM -38.6849 145.2901 161° South 230 265 18,900  Level Aus ATC (RADAR)
Thu 06:39:53 AM -38.7005 145.2969 161° South 233 268 18,900  Level Aus ATC (RADAR)
Thu 06:40:28 AM -38.7373 145.3152 159° South 241 277 18,900  Level Aus ATC (RADAR)
Thu 06:41:28 AM -38.8030 145.3438 161° South 250 288 18,900  Level Aus ATC (RADAR)
Thu 06:41:43 AM -38.8198 145.3514 160° South 251 289 18,900 120 Level Aus ATC (RADAR)
Thu 06:42:18 AM -38.8589 145.3690 161° South 254 292 19,000 71 Climbing Aus ATC (RADAR)
Thu 06:43:08 AM -38.9156 145.3924 162° South 255 293 19,000  Level Aus ATC (RADAR)
Thu 06:43:23 AM -38.9324 145.4006 159° South 256 295 19,000  Level Aus ATC (RADAR)
Thu 06:43:58 AM -38.9716 145.4181 161° South 254 292 19,000  Level Aus ATC (RADAR)
Thu 06:44:53 AM -39.0338 145.4467 160° South 257 296 19,000  Level Aus ATC (RADAR)
Thu 06:45:28 AM -39.0737 145.4623 163° South 255 293 19,000 -109 Level Aus ATC (RADAR)
Thu 06:46:43 AM -39.1574 145.5013 160° South 253 291 18,800 -133 Descending Aus ATC (RADAR)
Thu 06:46:58 AM -39.1741 145.5090 160° South 253 291 18,800  Level Aus ATC (RADAR)
Thu 06:47:32 AM -39.2123 145.5276 159° South 249 287 18,800  Level Aus ATC (RADAR)
Thu 06:48:47 AM -39.2950 145.5649 161° South 250 288 18,800  Level Aus ATC (RADAR)
Thu 06:49:22 AM -39.3338 145.5807 163° South 249 287 18,800  Level Aus ATC (RADAR)
Thu 06:50:07 AM -39.3835 145.6034 161° South 250 288 18,800  Level Aus ATC (RADAR)
Thu 06:50:42 AM -39.4223 145.6206 161° South 251 289 18,800  Level Aus ATC (RADAR)
Thu 06:51:47 AM -39.4948 145.6528 161° South 253 291 18,800  Level Aus ATC (RADAR)
Thu 06:52:02 AM -39.5116 145.6602 161° South 252 290 18,800  Level Aus ATC (RADAR)
Thu 06:52:37 AM -39.5507 145.6786 160° South 253 291 18,800  Level Aus ATC (RADAR)
Thu 06:53:37 AM -39.6178 145.7099 160° South 254 292 18,800  Level Aus ATC (RADAR)
Thu 06:54:12 AM -39.6568 145.7280 160° South 254 292 18,800  Level Aus ATC (RADAR)
Thu 06:55:02 AM -39.7138 145.7511 163° South 255 293 18,800  Level Aus ATC (RADAR)
Thu 06:55:37 AM -39.7523 145.7710 158° South 253 291 18,800  Level Aus ATC (RADAR)
Thu 06:56:52 AM -39.8371 145.8087 161° South 256 295 18,800  Level Aus ATC (RADAR)
Thu 06:57:07 AM -39.8544 145.8151 164° South 256 295 18,800  Level Aus ATC (RADAR)
Thu 06:57:42 AM -39.8940 145.8318 162° South 254 292 18,800  Level Aus ATC (RADAR)
Thu 06:58:36 AM -39.9558 145.8618 160° South 256 295 18,800  Level Aus ATC (RADAR)
Thu 06:59:21 AM -40.0057 145.8864 159° South 254 292 18,800  Level Aus ATC (RADAR)
Thu 07:00:16 AM -40.0674 145.9165 159° South 254 292 18,800  Level Aus ATC (RADAR)
Thu 07:00:56 AM -40.1144 145.9310 167° South 256 295 18,800 126 Level Aus ATC (RADAR)
Thu 07:01:51 AM -40.1747 145.9646 157° South 255 293 19,000 171 Climbing Aus ATC (RADAR)
Thu 07:02:06 AM -40.1918 145.9706 165° South 253 291 19,000  Level Aus ATC (RADAR)
Thu 07:02:41 AM -40.2313 145.9868 163° South 252 290 19,000 -776 Level Aus ATC (RADAR)
Thu 07:03:31 AM -40.2893 146.0148 160° South 267 307 17,900 -1,292 Descending Aus ATC (RADAR)
Thu 07:03:46 AM -40.3071 146.0244 158° South 269 310 17,600 -1,440 Descending Aus ATC (RADAR)
Thu 07:04:21 AM -40.3493 146.0441 160° South 270 311 16,700 -1,482 Descending Aus ATC (RADAR)
Thu 07:05:11 AM -40.4079 146.0708 161° South 264 304 15,500 -1,412 Descending Aus ATC (RADAR)
Thu 07:05:46 AM -40.4486 146.0932 157° South 266 306 14,700 -1,400 Descending Aus ATC (RADAR)
Thu 07:07:11 AM -40.5484 146.1374 161° South 257 296 12,700 -1,380 Descending Aus ATC (RADAR)
Thu 07:07:26 AM -40.5653 146.1454 160° South 254 292 12,400 -1,309 Descending Aus ATC (RADAR)
Thu 07:08:06 AM -40.6085 146.1672 159° South 243 280 11,500 -1,281 Descending Aus ATC (RADAR)
Thu 07:08:55 AM -40.6623 146.1930 160° South 242 278 10,500 -1,286 Descending Aus ATC (RADAR)
Thu 07:09:30 AM -40.6983 146.2092 161° South 231 266 9,700 -1,341 Descending Aus ATC (RADAR)
Thu 07:10:20 AM -40.7508 146.2340 160° South 237 273 8,600 -1,292 Descending Aus ATC (RADAR)
Thu 07:10:35 AM -40.7669 146.2415 160° South 238 274 8,300 -1,320 Descending Aus ATC (RADAR)
Thu 07:11:10 AM -40.8041 146.2590 160° South 238 274 7,500 -1,263 Descending Aus ATC (RADAR)
Thu 07:12:10 AM -40.8676 146.2896 160° South 236 272 6,300 -1,280 Descending Aus ATC (RADAR)
Thu 07:12:25 AM -40.8829 146.2970 160° South 232 267 5,900 -1,200 Descending Aus ATC (RADAR)
Thu 07:13:00 AM -40.9183 146.3132 161° South 227 261 5,300 -1,200 Descending Aus ATC (RADAR)
Thu 07:13:50 AM -40.9672 146.3369 160° South 217 250 4,200 -1,200 Descending Aus ATC (RADAR)
Thu 07:14:25 AM -40.9993 146.3525 160° South 207 238 3,600 -1,000 Descending Aus ATC (RADAR)
Thu 07:15:20 AM -41.0455 146.3744 160° South 180 207 2,700 -943 Descending Aus ATC (RADAR)
Thu 07:15:35 AM -41.0552 146.3788 161° South 159 183 2,500 -480 Descending Aus ATC (RADAR)
Thu 07:16:10 AM -41.0764 146.3881 162° South 139 160 2,300 -343 Descending Aus ATC (RADAR)
Thu 07:18:00 AM -41.1697 146.4303 278° West  Level FlightAware Approximate
Thu 07:25:00 AM -41.1697 146.4303 278° West  Level Estimated
Thu 07:26:00 AM -41.1697 146.4303 278° West  Level Estimated
Thu 07:27:00 AM -41.1697 146.4303 278° West  Level Estimated
Thu 07:28:00 AM -41.1697 146.4303 278° West  Level Estimated
Thu 07:29:00 AM -41.1697 146.4303 278° West  Level Estimated
Thu 07:30:00 AM -41.1697 146.4303 278° West  Level Estimated
Thu 07:31:00 AM -41.1697 146.4303 278° West  Level Estimated
Thu 07:32:00 AM -41.1697 146.4303 278° West  Level Estimated
Thu 07:33:00 AM -41.1697 146.4303 278° West  Level Estimated
Thu 07:34:00 AM -41.1697 146.4303 278° West  Level Estimated
Thu 07:35:00 AM -41.1697 146.4303 278° West  Level Estimated
Thu 07:36:00 AM -41.1697 146.4303 278° West  Level Estimated

Login

Don't have an account? Register now (free) for customized features, flight alerts, and more!